Terminal Aerodrome Forecast
Issued by NWS

Home | Current Version | Previous Version | Graphics & Text | Print | Product List | Glossary On
Versions: 1 2 3 4 5 6 7 8 9 10 11 12 13 14 15 16
648
FTUS43 KMPX 101120
TAFAXN
TAF
KAXN 101120Z 1012/1112 09004KT P6SM BKN050
      TEMPO 1012/1015 6SM -SHSN OVC035
     FM110000 33004KT P6SM BKN040
     FM110400 VRB02KT P6SM BKN100=

USA.gov is the U.S. government's official web portal to all federal, state and local government web resources and services.